sensor_id;sensor_type;location;lat;lon;timestamp;P1;durP1;ratioP1;P2;durP2;ratioP2
63801;SDS011;49949;43.060;25.624;2023-08-30T00:00:18;11.70;;;6.40;;
63801;SDS011;49949;43.060;25.624;2023-08-30T00:02:46;11.88;;;6.65;;
63801;SDS011;49949;43.060;25.624;2023-08-30T00:05:12;14.20;;;6.10;;
63801;SDS011;49949;43.060;25.624;2023-08-30T00:07:39;10.70;;;6.18;;
63801;SDS011;49949;43.060;25.624;2023-08-30T00:10:05;8.30;;;5.97;;
63801;SDS011;49949;43.060;25.624;2023-08-30T00:12:32;11.35;;;5.82;;
63801;SDS011;49949;43.060;25.624;2023-08-30T00:14:58;10.27;;;5.78;;
63801;SDS011;49949;43.060;25.624;2023-08-30T00:17:24;16.30;;;6.07;;
63801;SDS011;49949;43.060;25.624;2023-08-30T00:19:50;8.68;;;5.25;;
63801;SDS011;49949;43.060;25.624;2023-08-30T00:22:17;16.63;;;6.72;;
63801;SDS011;49949;43.060;25.624;2023-08-30T00:24:44;10.82;;;6.88;;
63801;SDS011;49949;43.060;25.624;2023-08-30T00:27:10;14.20;;;6.78;;
63801;SDS011;49949;43.060;25.624;2023-08-30T00:29:37;10.52;;;6.68;;
63801;SDS011;49949;43.060;25.624;2023-08-30T00:32:03;12.88;;;6.32;;
63801;SDS011;49949;43.060;25.624;2023-08-30T00:34:28;13.40;;;7.05;;
63801;SDS011;49949;43.060;25.624;2023-08-30T00:36:54;10.18;;;6.68;;
63801;SDS011;49949;43.060;25.624;2023-08-30T00:39:20;13.10;;;6.72;;
63801;SDS011;49949;43.060;25.624;2023-08-30T00:41:46;11.75;;;6.63;;
63801;SDS011;49949;43.060;25.624;2023-08-30T00:44:11;10.52;;;6.90;;
63801;SDS011;49949;43.060;25.624;2023-08-30T00:46:37;10.98;;;6.18;;
63801;SDS011;49949;43.060;25.624;2023-08-30T00:49:03;10.18;;;6.47;;
63801;SDS011;49949;43.060;25.624;2023-08-30T00:51:30;10.45;;;6.60;;
63801;SDS011;49949;43.060;25.624;2023-08-30T00:53:57;11.32;;;6.22;;
63801;SDS011;49949;43.060;25.624;2023-08-30T00:56:24;14.60;;;7.22;;
63801;SDS011;49949;43.060;25.624;2023-08-30T00:58:52;10.98;;;6.38;;
63801;SDS011;49949;43.060;25.624;2023-08-30T01:01:18;9.95;;;6.43;;
63801;SDS011;49949;43.060;25.624;2023-08-30T01:03:45;15.30;;;6.75;;
63801;SDS011;49949;43.060;25.624;2023-08-30T01:06:11;14.05;;;6.65;;
63801;SDS011;49949;43.060;25.624;2023-08-30T01:08:38;12.63;;;7.00;;
63801;SDS011;49949;43.060;25.624;2023-08-30T01:11:09;13.60;;;7.18;;
63801;SDS011;49949;43.060;25.624;2023-08-30T01:13:58;11.15;;;7.38;;
63801;SDS011;49949;43.060;25.624;2023-08-30T01:16:31;14.23;;;8.02;;
63801;SDS011;49949;43.060;25.624;2023-08-30T01:18:57;13.95;;;6.97;;
63801;SDS011;49949;43.060;25.624;2023-08-30T01:24:37;15.48;;;8.13;;
63801;SDS011;49949;43.060;25.624;2023-08-30T01:27:14;18.90;;;7.75;;
63801;SDS011;49949;43.060;25.624;2023-08-30T01:29:42;10.18;;;6.80;;
63801;SDS011;49949;43.060;25.624;2023-08-30T01:32:09;15.63;;;7.95;;
63801;SDS011;49949;43.060;25.624;2023-08-30T01:34:36;13.00;;;7.45;;
63801;SDS011;49949;43.060;25.624;2023-08-30T01:37:07;18.02;;;7.53;;
63801;SDS011;49949;43.060;25.624;2023-08-30T01:39:34;15.38;;;7.93;;
63801;SDS011;49949;43.060;25.624;2023-08-30T01:42:02;13.32;;;7.22;;
63801;SDS011;49949;43.060;25.624;2023-08-30T01:44:29;15.07;;;7.72;;
63801;SDS011;49949;43.060;25.624;2023-08-30T01:46:56;12.48;;;7.65;;
63801;SDS011;49949;43.060;25.624;2023-08-30T01:49:23;14.85;;;7.68;;
63801;SDS011;49949;43.060;25.624;2023-08-30T01:51:50;9.48;;;7.63;;
63801;SDS011;49949;43.060;25.624;2023-08-30T01:54:18;13.80;;;8.00;;
63801;SDS011;49949;43.060;25.624;2023-08-30T01:56:45;11.82;;;7.40;;
63801;SDS011;49949;43.060;25.624;2023-08-30T01:59:11;16.02;;;7.13;;
63801;SDS011;49949;43.060;25.624;2023-08-30T02:01:37;16.02;;;7.50;;
63801;SDS011;49949;43.060;25.624;2023-08-30T02:04:03;11.63;;;7.78;;
63801;SDS011;49949;43.060;25.624;2023-08-30T02:06:35;11.55;;;7.38;;
63801;SDS011;49949;43.060;25.624;2023-08-30T02:12:04;11.15;;;7.47;;
63801;SDS011;49949;43.060;25.624;2023-08-30T02:14:35;12.80;;;7.38;;
63801;SDS011;49949;43.060;25.624;2023-08-30T02:17:03;14.43;;;7.80;;
63801;SDS011;49949;43.060;25.624;2023-08-30T02:19:31;13.80;;;7.65;;
63801;SDS011;49949;43.060;25.624;2023-08-30T02:21:57;23.92;;;8.00;;
63801;SDS011;49949;43.060;25.624;2023-08-30T02:24:24;15.30;;;7.82;;
63801;SDS011;49949;43.060;25.624;2023-08-30T02:26:50;17.42;;;7.40;;
63801;SDS011;49949;43.060;25.624;2023-08-30T02:29:15;17.48;;;8.57;;
63801;SDS011;49949;43.060;25.624;2023-08-30T02:31:41;16.23;;;8.02;;
63801;SDS011;49949;43.060;25.624;2023-08-30T02:34:07;14.00;;;7.93;;
63801;SDS011;49949;43.060;25.624;2023-08-30T02:36:32;17.70;;;7.95;;
63801;SDS011;49949;43.060;25.624;2023-08-30T02:38:58;19.98;;;9.35;;
63801;SDS011;49949;43.060;25.624;2023-08-30T02:41:24;15.88;;;7.55;;
63801;SDS011;49949;43.060;25.624;2023-08-30T02:43:49;16.15;;;7.93;;
63801;SDS011;49949;43.060;25.624;2023-08-30T02:46:15;17.77;;;7.68;;
63801;SDS011;49949;43.060;25.624;2023-08-30T02:48:41;14.13;;;7.63;;
63801;SDS011;49949;43.060;25.624;2023-08-30T02:51:07;14.27;;;8.25;;
63801;SDS011;49949;43.060;25.624;2023-08-30T02:53:32;14.43;;;7.72;;
63801;SDS011;49949;43.060;25.624;2023-08-30T02:55:58;12.48;;;8.10;;
63801;SDS011;49949;43.060;25.624;2023-08-30T02:58:24;14.07;;;7.40;;
63801;SDS011;49949;43.060;25.624;2023-08-30T03:00:49;18.30;;;7.78;;
63801;SDS011;49949;43.060;25.624;2023-08-30T03:03:15;14.65;;;8.10;;
63801;SDS011;49949;43.060;25.624;2023-08-30T03:05:41;13.57;;;7.82;;
63801;SDS011;49949;43.060;25.624;2023-08-30T03:08:07;16.27;;;7.97;;
63801;SDS011;49949;43.060;25.624;2023-08-30T03:10:32;21.70;;;8.48;;
63801;SDS011;49949;43.060;25.624;2023-08-30T03:12:58;13.85;;;8.43;;
63801;SDS011;49949;43.060;25.624;2023-08-30T03:15:23;13.10;;;7.95;;
63801;SDS011;49949;43.060;25.624;2023-08-30T03:17:49;27.80;;;10.32;;
63801;SDS011;49949;43.060;25.624;2023-08-30T03:20:15;28.35;;;8.82;;
63801;SDS011;49949;43.060;25.624;2023-08-30T03:22:41;20.45;;;8.50;;
63801;SDS011;49949;43.060;25.624;2023-08-30T03:25:07;23.15;;;8.63;;
63801;SDS011;49949;43.060;25.624;2023-08-30T03:27:34;22.52;;;8.82;;
63801;SDS011;49949;43.060;25.624;2023-08-30T03:30:00;20.52;;;9.20;;
63801;SDS011;49949;43.060;25.624;2023-08-30T03:32:26;13.65;;;7.82;;
63801;SDS011;49949;43.060;25.624;2023-08-30T03:34:52;37.78;;;9.88;;
63801;SDS011;49949;43.060;25.624;2023-08-30T03:37:18;26.02;;;9.18;;
63801;SDS011;49949;43.060;25.624;2023-08-30T03:39:43;21.58;;;8.45;;
63801;SDS011;49949;43.060;25.624;2023-08-30T03:42:09;17.98;;;7.60;;
63801;SDS011;49949;43.060;25.624;2023-08-30T03:44:35;19.48;;;7.90;;
63801;SDS011;49949;43.060;25.624;2023-08-30T03:47:02;20.95;;;9.23;;
63801;SDS011;49949;43.060;25.624;2023-08-30T03:49:28;21.20;;;9.00;;
63801;SDS011;49949;43.060;25.624;2023-08-30T03:51:54;14.50;;;8.27;;
63801;SDS011;49949;43.060;25.624;2023-08-30T03:54:20;19.58;;;8.68;;
63801;SDS011;49949;43.060;25.624;2023-08-30T03:56:45;15.82;;;8.50;;
63801;SDS011;49949;43.060;25.624;2023-08-30T03:59:11;27.77;;;8.88;;
63801;SDS011;49949;43.060;25.624;2023-08-30T04:01:37;19.05;;;8.82;;
63801;SDS011;49949;43.060;25.624;2023-08-30T04:04:03;33.10;;;9.20;;
63801;SDS011;49949;43.060;25.624;2023-08-30T04:06:30;16.85;;;8.45;;
63801;SDS011;49949;43.060;25.624;2023-08-30T04:08:55;18.73;;;8.30;;
63801;SDS011;49949;43.060;25.624;2023-08-30T04:11:21;18.90;;;7.90;;
63801;SDS011;49949;43.060;25.624;2023-08-30T04:13:47;22.23;;;8.27;;
63801;SDS011;49949;43.060;25.624;2023-08-30T04:16:13;22.48;;;7.88;;
63801;SDS011;49949;43.060;25.624;2023-08-30T04:18:39;28.88;;;8.93;;
63801;SDS011;49949;43.060;25.624;2023-08-30T04:21:04;26.42;;;8.75;;
63801;SDS011;49949;43.060;25.624;2023-08-30T04:23:31;46.95;;;9.75;;
63801;SDS011;49949;43.060;25.624;2023-08-30T04:25:57;18.95;;;8.13;;
63801;SDS011;49949;43.060;25.624;2023-08-30T04:28:22;31.10;;;8.60;;
63801;SDS011;49949;43.060;25.624;2023-08-30T04:30:48;14.35;;;7.28;;
63801;SDS011;49949;43.060;25.624;2023-08-30T04:33:14;22.08;;;7.68;;
63801;SDS011;49949;43.060;25.624;2023-08-30T04:35:39;17.50;;;6.88;;
63801;SDS011;49949;43.060;25.624;2023-08-30T04:38:05;22.33;;;8.48;;
63801;SDS011;49949;43.060;25.624;2023-08-30T04:40:31;23.40;;;8.45;;
63801;SDS011;49949;43.060;25.624;2023-08-30T04:43:00;28.02;;;9.10;;
63801;SDS011;49949;43.060;25.624;2023-08-30T04:45:26;26.30;;;9.25;;
63801;SDS011;49949;43.060;25.624;2023-08-30T04:47:52;22.50;;;7.82;;
63801;SDS011;49949;43.060;25.624;2023-08-30T04:50:19;25.02;;;7.13;;
63801;SDS011;49949;43.060;25.624;2023-08-30T04:52:45;16.80;;;7.20;;
63801;SDS011;49949;43.060;25.624;2023-08-30T04:55:11;23.30;;;7.18;;
63801;SDS011;49949;43.060;25.624;2023-08-30T04:57:36;22.63;;;9.13;;
63801;SDS011;49949;43.060;25.624;2023-08-30T05:00:02;46.72;;;11.20;;
63801;SDS011;49949;43.060;25.624;2023-08-30T05:02:30;38.83;;;8.45;;
63801;SDS011;49949;43.060;25.624;2023-08-30T05:04:56;36.08;;;9.23;;
63801;SDS011;49949;43.060;25.624;2023-08-30T05:07:22;32.90;;;9.00;;
63801;SDS011;49949;43.060;25.624;2023-08-30T05:09:48;38.88;;;9.45;;
63801;SDS011;49949;43.060;25.624;2023-08-30T05:12:13;40.25;;;8.93;;
63801;SDS011;49949;43.060;25.624;2023-08-30T05:14:39;34.08;;;9.13;;
63801;SDS011;49949;43.060;25.624;2023-08-30T05:17:06;31.50;;;9.60;;
63801;SDS011;49949;43.060;25.624;2023-08-30T05:19:32;26.85;;;8.85;;
63801;SDS011;49949;43.060;25.624;2023-08-30T05:21:58;34.05;;;7.72;;
63801;SDS011;49949;43.060;25.624;2023-08-30T05:24:23;29.70;;;8.90;;
63801;SDS011;49949;43.060;25.624;2023-08-30T05:26:51;38.60;;;10.10;;
63801;SDS011;49949;43.060;25.624;2023-08-30T05:29:17;32.88;;;9.77;;
63801;SDS011;49949;43.060;25.624;2023-08-30T05:31:43;33.00;;;10.57;;
63801;SDS011;49949;43.060;25.624;2023-08-30T05:34:09;57.80;;;11.80;;
63801;SDS011;49949;43.060;25.624;2023-08-30T05:36:35;40.50;;;10.48;;
63801;SDS011;49949;43.060;25.624;2023-08-30T05:39:01;22.10;;;8.88;;
63801;SDS011;49949;43.060;25.624;2023-08-30T05:41:28;34.83;;;8.38;;
63801;SDS011;49949;43.060;25.624;2023-08-30T05:43:54;31.27;;;9.20;;
63801;SDS011;49949;43.060;25.624;2023-08-30T05:46:20;28.50;;;9.13;;
63801;SDS011;49949;43.060;25.624;2023-08-30T05:48:45;30.70;;;10.20;;
63801;SDS011;49949;43.060;25.624;2023-08-30T05:51:11;30.35;;;10.23;;
63801;SDS011;49949;43.060;25.624;2023-08-30T05:53:37;30.35;;;9.57;;
63801;SDS011;49949;43.060;25.624;2023-08-30T05:56:03;32.95;;;8.95;;
63801;SDS011;49949;43.060;25.624;2023-08-30T05:58:29;25.98;;;8.30;;
63801;SDS011;49949;43.060;25.624;2023-08-30T06:00:56;31.90;;;8.85;;
63801;SDS011;49949;43.060;25.624;2023-08-30T06:03:22;24.48;;;7.78;;
63801;SDS011;49949;43.060;25.624;2023-08-30T06:05:48;16.33;;;7.47;;
63801;SDS011;49949;43.060;25.624;2023-08-30T06:08:14;14.57;;;7.43;;
63801;SDS011;49949;43.060;25.624;2023-08-30T06:10:40;26.33;;;6.80;;
63801;SDS011;49949;43.060;25.624;2023-08-30T06:13:06;18.90;;;6.15;;
63801;SDS011;49949;43.060;25.624;2023-08-30T06:15:32;10.82;;;6.57;;
63801;SDS011;49949;43.060;25.624;2023-08-30T06:17:58;19.63;;;6.20;;
63801;SDS011;49949;43.060;25.624;2023-08-30T06:20:24;16.48;;;6.25;;
63801;SDS011;49949;43.060;25.624;2023-08-30T06:22:50;24.80;;;7.10;;
63801;SDS011;49949;43.060;25.624;2023-08-30T06:25:16;18.48;;;7.97;;
63801;SDS011;49949;43.060;25.624;2023-08-30T06:27:42;16.25;;;8.20;;
63801;SDS011;49949;43.060;25.624;2023-08-30T06:30:20;12.93;;;6.72;;
63801;SDS011;49949;43.060;25.624;2023-08-30T06:32:46;15.05;;;6.32;;
63801;SDS011;49949;43.060;25.624;2023-08-30T06:35:11;13.32;;;6.25;;
63801;SDS011;49949;43.060;25.624;2023-08-30T06:37:37;16.88;;;6.10;;
63801;SDS011;49949;43.060;25.624;2023-08-30T06:40:03;11.07;;;5.50;;
63801;SDS011;49949;43.060;25.624;2023-08-30T06:42:29;11.93;;;5.43;;
63801;SDS011;49949;43.060;25.624;2023-08-30T06:44:55;14.55;;;5.80;;
63801;SDS011;49949;43.060;25.624;2023-08-30T06:47:20;17.80;;;6.28;;
63801;SDS011;49949;43.060;25.624;2023-08-30T06:49:46;9.20;;;5.50;;
63801;SDS011;49949;43.060;25.624;2023-08-30T06:52:12;11.75;;;6.07;;
63801;SDS011;49949;43.060;25.624;2023-08-30T06:54:37;13.90;;;5.78;;
63801;SDS011;49949;43.060;25.624;2023-08-30T06:57:03;15.57;;;6.60;;
63801;SDS011;49949;43.060;25.624;2023-08-30T06:59:31;14.68;;;6.35;;
63801;SDS011;49949;43.060;25.624;2023-08-30T07:01:56;14.68;;;5.97;;
63801;SDS011;49949;43.060;25.624;2023-08-30T07:04:22;18.00;;;5.72;;
63801;SDS011;49949;43.060;25.624;2023-08-30T07:06:48;9.73;;;5.28;;
63801;SDS011;49949;43.060;25.624;2023-08-30T07:09:14;11.48;;;5.70;;
63801;SDS011;49949;43.060;25.624;2023-08-30T07:11:41;11.45;;;5.72;;
63801;SDS011;49949;43.060;25.624;2023-08-30T07:14:10;10.50;;;5.70;;
63801;SDS011;49949;43.060;25.624;2023-08-30T07:16:37;13.63;;;5.38;;
63801;SDS011;49949;43.060;25.624;2023-08-30T07:19:03;12.75;;;5.18;;
63801;SDS011;49949;43.060;25.624;2023-08-30T07:21:29;10.45;;;5.68;;
63801;SDS011;49949;43.060;25.624;2023-08-30T07:23:54;12.05;;;6.10;;
63801;SDS011;49949;43.060;25.624;2023-08-30T07:26:20;12.82;;;5.75;;
63801;SDS011;49949;43.060;25.624;2023-08-30T07:28:46;11.23;;;5.13;;
63801;SDS011;49949;43.060;25.624;2023-08-30T07:31:11;15.93;;;6.15;;
63801;SDS011;49949;43.060;25.624;2023-08-30T07:33:40;12.68;;;6.43;;
63801;SDS011;49949;43.060;25.624;2023-08-30T07:36:06;18.58;;;6.82;;
63801;SDS011;49949;43.060;25.624;2023-08-30T07:38:33;12.85;;;6.25;;
63801;SDS011;49949;43.060;25.624;2023-08-30T07:41:00;10.43;;;5.20;;
63801;SDS011;49949;43.060;25.624;2023-08-30T07:43:26;8.63;;;4.97;;
63801;SDS011;49949;43.060;25.624;2023-08-30T07:45:51;7.57;;;5.03;;
63801;SDS011;49949;43.060;25.624;2023-08-30T07:48:18;14.85;;;5.50;;
63801;SDS011;49949;43.060;25.624;2023-08-30T07:50:44;12.50;;;5.78;;
63801;SDS011;49949;43.060;25.624;2023-08-30T07:53:10;15.43;;;5.53;;
63801;SDS011;49949;43.060;25.624;2023-08-30T07:55:36;10.48;;;5.65;;
63801;SDS011;49949;43.060;25.624;2023-08-30T07:58:02;14.38;;;5.57;;
63801;SDS011;49949;43.060;25.624;2023-08-30T08:00:30;13.23;;;5.75;;
63801;SDS011;49949;43.060;25.624;2023-08-30T08:02:56;13.52;;;5.85;;
63801;SDS011;49949;43.060;25.624;2023-08-30T08:05:21;10.05;;;5.78;;
63801;SDS011;49949;43.060;25.624;2023-08-30T08:07:51;9.20;;;5.18;;
63801;SDS011;49949;43.060;25.624;2023-08-30T08:10:17;11.02;;;5.75;;
63801;SDS011;49949;43.060;25.624;2023-08-30T08:12:43;14.90;;;5.10;;
63801;SDS011;49949;43.060;25.624;2023-08-30T08:15:09;11.95;;;5.45;;
63801;SDS011;49949;43.060;25.624;2023-08-30T08:17:35;11.32;;;5.60;;
63801;SDS011;49949;43.060;25.624;2023-08-30T08:20:01;18.27;;;5.97;;
63801;SDS011;49949;43.060;25.624;2023-08-30T08:22:30;11.52;;;5.43;;
63801;SDS011;49949;43.060;25.624;2023-08-30T08:24:56;22.85;;;5.95;;
63801;SDS011;49949;43.060;25.624;2023-08-30T08:27:22;8.63;;;5.10;;
63801;SDS011;49949;43.060;25.624;2023-08-30T08:29:49;10.23;;;5.50;;
63801;SDS011;49949;43.060;25.624;2023-08-30T08:32:15;12.32;;;5.53;;
63801;SDS011;49949;43.060;25.624;2023-08-30T08:34:41;13.95;;;5.38;;
63801;SDS011;49949;43.060;25.624;2023-08-30T08:37:07;15.57;;;6.07;;
63801;SDS011;49949;43.060;25.624;2023-08-30T08:39:32;9.75;;;5.20;;
63801;SDS011;49949;43.060;25.624;2023-08-30T08:41:59;12.93;;;5.43;;
63801;SDS011;49949;43.060;25.624;2023-08-30T08:44:26;8.38;;;5.78;;
63801;SDS011;49949;43.060;25.624;2023-08-30T08:46:56;16.83;;;6.07;;
63801;SDS011;49949;43.060;25.624;2023-08-30T08:49:22;10.98;;;5.50;;
63801;SDS011;49949;43.060;25.624;2023-08-30T08:51:53;13.13;;;5.03;;
63801;SDS011;49949;43.060;25.624;2023-08-30T08:54:19;11.50;;;4.93;;
63801;SDS011;49949;43.060;25.624;2023-08-30T08:56:45;12.10;;;5.03;;
63801;SDS011;49949;43.060;25.624;2023-08-30T08:59:11;14.32;;;5.47;;
63801;SDS011;49949;43.060;25.624;2023-08-30T09:01:41;15.77;;;5.32;;
63801;SDS011;49949;43.060;25.624;2023-08-30T09:04:08;9.80;;;5.43;;
63801;SDS011;49949;43.060;25.624;2023-08-30T09:06:34;15.57;;;5.35;;
63801;SDS011;49949;43.060;25.624;2023-08-30T09:09:01;14.80;;;5.22;;
63801;SDS011;49949;43.060;25.624;2023-08-30T09:11:29;13.02;;;5.28;;
63801;SDS011;49949;43.060;25.624;2023-08-30T09:13:54;7.55;;;5.03;;
63801;SDS011;49949;43.060;25.624;2023-08-30T09:16:20;11.90;;;5.03;;
63801;SDS011;49949;43.060;25.624;2023-08-30T09:18:56;10.23;;;4.95;;
63801;SDS011;49949;43.060;25.624;2023-08-30T09:21:23;14.45;;;5.28;;
63801;SDS011;49949;43.060;25.624;2023-08-30T09:23:56;14.63;;;5.68;;
63801;SDS011;49949;43.060;25.624;2023-08-30T09:26:29;9.18;;;5.00;;
63801;SDS011;49949;43.060;25.624;2023-08-30T09:29:01;9.75;;;4.65;;
63801;SDS011;49949;43.060;25.624;2023-08-30T09:31:37;11.70;;;5.57;;
63801;SDS011;49949;43.060;25.624;2023-08-30T09:34:04;12.15;;;4.78;;
63801;SDS011;49949;43.060;25.624;2023-08-30T09:36:37;11.50;;;5.38;;
63801;SDS011;49949;43.060;25.624;2023-08-30T09:39:12;10.38;;;5.22;;
63801;SDS011;49949;43.060;25.624;2023-08-30T09:41:42;9.02;;;5.68;;
63801;SDS011;49949;43.060;25.624;2023-08-30T09:44:09;8.63;;;5.10;;
63801;SDS011;49949;43.060;25.624;2023-08-30T09:46:45;7.40;;;4.65;;
63801;SDS011;49949;43.060;25.624;2023-08-30T09:49:17;14.82;;;5.78;;
63801;SDS011;49949;43.060;25.624;2023-08-30T09:51:46;8.90;;;4.88;;
63801;SDS011;49949;43.060;25.624;2023-08-30T09:54:15;9.27;;;4.90;;
63801;SDS011;49949;43.060;25.624;2023-08-30T09:56:42;15.48;;;5.35;;
63801;SDS011;49949;43.060;25.624;2023-08-30T09:59:10;13.90;;;5.57;;
63801;SDS011;49949;43.060;25.624;2023-08-30T10:01:37;10.88;;;4.88;;
63801;SDS011;49949;43.060;25.624;2023-08-30T10:04:03;12.48;;;5.00;;
63801;SDS011;49949;43.060;25.624;2023-08-30T10:06:31;33.42;;;6.28;;
63801;SDS011;49949;43.060;25.624;2023-08-30T10:08:58;13.32;;;5.10;;
63801;SDS011;49949;43.060;25.624;2023-08-30T10:11:24;10.80;;;4.88;;
63801;SDS011;49949;43.060;25.624;2023-08-30T10:13:54;14.60;;;5.32;;
63801;SDS011;49949;43.060;25.624;2023-08-30T10:16:21;9.23;;;5.22;;
63801;SDS011;49949;43.060;25.624;2023-08-30T10:19:11;19.02;;;5.28;;
63801;SDS011;49949;43.060;25.624;2023-08-30T10:21:37;11.40;;;5.32;;
63801;SDS011;49949;43.060;25.624;2023-08-30T10:24:05;12.23;;;5.55;;
63801;SDS011;49949;43.060;25.624;2023-08-30T10:26:34;8.88;;;5.40;;
63801;SDS011;49949;43.060;25.624;2023-08-30T10:29:01;19.02;;;6.05;;
63801;SDS011;49949;43.060;25.624;2023-08-30T10:31:28;9.60;;;5.32;;
63801;SDS011;49949;43.060;25.624;2023-08-30T10:33:54;11.55;;;5.32;;
63801;SDS011;49949;43.060;25.624;2023-08-30T10:36:24;32.63;;;11.00;;
63801;SDS011;49949;43.060;25.624;2023-08-30T10:38:51;10.55;;;4.85;;
63801;SDS011;49949;43.060;25.624;2023-08-30T10:41:23;11.98;;;5.05;;
63801;SDS011;49949;43.060;25.624;2023-08-30T10:43:54;9.32;;;5.47;;
63801;SDS011;49949;43.060;25.624;2023-08-30T10:46:30;11.18;;;5.95;;
63801;SDS011;49949;43.060;25.624;2023-08-30T10:49:07;7.68;;;5.03;;
63801;SDS011;49949;43.060;25.624;2023-08-30T10:51:39;7.40;;;5.00;;
63801;SDS011;49949;43.060;25.624;2023-08-30T10:54:13;7.60;;;4.80;;
63801;SDS011;49949;43.060;25.624;2023-08-30T10:56:56;179.65;;;12.75;;
63801;SDS011;49949;43.060;25.624;2023-08-30T10:59:24;10.52;;;5.40;;
63801;SDS011;49949;43.060;25.624;2023-08-30T11:01:51;8.68;;;5.18;;
63801;SDS011;49949;43.060;25.624;2023-08-30T11:04:17;12.75;;;5.60;;
63801;SDS011;49949;43.060;25.624;2023-08-30T11:06:47;9.07;;;5.15;;
63801;SDS011;49949;43.060;25.624;2023-08-30T11:09:14;28.48;;;6.63;;
63801;SDS011;49949;43.060;25.624;2023-08-30T11:11:50;22.20;;;6.63;;
63801;SDS011;49949;43.060;25.624;2023-08-30T11:14:17;10.93;;;5.53;;
63801;SDS011;49949;43.060;25.624;2023-08-30T11:16:44;10.43;;;5.15;;
63801;SDS011;49949;43.060;25.624;2023-08-30T11:19:10;20.15;;;5.43;;
63801;SDS011;49949;43.060;25.624;2023-08-30T11:21:41;15.75;;;5.30;;
63801;SDS011;49949;43.060;25.624;2023-08-30T11:24:09;16.70;;;5.78;;
63801;SDS011;49949;43.060;25.624;2023-08-30T11:26:35;18.52;;;5.75;;
63801;SDS011;49949;43.060;25.624;2023-08-30T11:29:04;18.33;;;5.40;;
63801;SDS011;49949;43.060;25.624;2023-08-30T11:31:30;15.98;;;4.90;;
63801;SDS011;49949;43.060;25.624;2023-08-30T11:33:57;12.82;;;5.18;;
63801;SDS011;49949;43.060;25.624;2023-08-30T11:36:25;13.27;;;5.57;;
63801;SDS011;49949;43.060;25.624;2023-08-30T11:38:53;10.25;;;5.45;;
63801;SDS011;49949;43.060;25.624;2023-08-30T11:41:22;8.73;;;5.32;;
63801;SDS011;49949;43.060;25.624;2023-08-30T11:43:49;16.70;;;5.90;;
63801;SDS011;49949;43.060;25.624;2023-08-30T11:46:16;13.55;;;5.10;;
63801;SDS011;49949;43.060;25.624;2023-08-30T11:48:42;15.77;;;5.68;;
63801;SDS011;49949;43.060;25.624;2023-08-30T11:51:09;22.40;;;6.88;;
63801;SDS011;49949;43.060;25.624;2023-08-30T11:53:38;12.88;;;5.40;;
63801;SDS011;49949;43.060;25.624;2023-08-30T11:56:05;25.88;;;5.57;;
63801;SDS011;49949;43.060;25.624;2023-08-30T11:58:32;26.92;;;5.53;;
63801;SDS011;49949;43.060;25.624;2023-08-30T12:00:59;13.30;;;5.40;;
63801;SDS011;49949;43.060;25.624;2023-08-30T12:03:28;6.57;;;4.53;;
63801;SDS011;49949;43.060;25.624;2023-08-30T12:05:54;14.40;;;5.18;;
63801;SDS011;49949;43.060;25.624;2023-08-30T12:08:24;9.77;;;4.97;;
63801;SDS011;49949;43.060;25.624;2023-08-30T12:13:24;10.30;;;5.25;;
63801;SDS011;49949;43.060;25.624;2023-08-30T12:15:52;8.70;;;4.82;;
63801;SDS011;49949;43.060;25.624;2023-08-30T12:18:21;13.40;;;4.80;;
63801;SDS011;49949;43.060;25.624;2023-08-30T12:20:53;11.60;;;4.63;;
63801;SDS011;49949;43.060;25.624;2023-08-30T12:23:24;10.45;;;4.65;;
63801;SDS011;49949;43.060;25.624;2023-08-30T12:28:26;12.95;;;5.38;;
63801;SDS011;49949;43.060;25.624;2023-08-30T12:30:53;7.30;;;4.55;;
63801;SDS011;49949;43.060;25.624;2023-08-30T12:33:19;10.20;;;5.30;;
63801;SDS011;49949;43.060;25.624;2023-08-30T12:35:45;8.23;;;4.72;;
63801;SDS011;49949;43.060;25.624;2023-08-30T12:38:11;11.30;;;4.28;;
63801;SDS011;49949;43.060;25.624;2023-08-30T12:40:37;10.50;;;4.85;;
63801;SDS011;49949;43.060;25.624;2023-08-30T12:43:03;8.20;;;4.75;;
63801;SDS011;49949;43.060;25.624;2023-08-30T12:45:29;9.88;;;4.85;;
63801;SDS011;49949;43.060;25.624;2023-08-30T12:47:55;9.85;;;4.90;;
63801;SDS011;49949;43.060;25.624;2023-08-30T12:50:23;14.30;;;4.95;;
63801;SDS011;49949;43.060;25.624;2023-08-30T12:52:49;10.63;;;4.68;;
63801;SDS011;49949;43.060;25.624;2023-08-30T12:55:15;5.82;;;4.78;;
63801;SDS011;49949;43.060;25.624;2023-08-30T12:57:42;13.77;;;5.07;;
63801;SDS011;49949;43.060;25.624;2023-08-30T13:00:11;13.02;;;5.50;;
63801;SDS011;49949;43.060;25.624;2023-08-30T13:02:38;7.45;;;4.70;;
63801;SDS011;49949;43.060;25.624;2023-08-30T13:05:04;12.77;;;5.05;;
63801;SDS011;49949;43.060;25.624;2023-08-30T13:07:30;9.10;;;4.30;;
63801;SDS011;49949;43.060;25.624;2023-08-30T13:09:56;8.68;;;4.90;;
63801;SDS011;49949;43.060;25.624;2023-08-30T13:12:21;10.07;;;4.53;;
63801;SDS011;49949;43.060;25.624;2023-08-30T13:14:47;16.58;;;5.82;;
63801;SDS011;49949;43.060;25.624;2023-08-30T13:17:13;11.80;;;5.32;;
63801;SDS011;49949;43.060;25.624;2023-08-30T13:19:38;8.65;;;5.18;;
63801;SDS011;49949;43.060;25.624;2023-08-30T13:22:04;12.75;;;5.18;;
63801;SDS011;49949;43.060;25.624;2023-08-30T13:24:30;12.50;;;7.40;;
63801;SDS011;49949;43.060;25.624;2023-08-30T13:26:57;13.63;;;4.90;;
63801;SDS011;49949;43.060;25.624;2023-08-30T13:29:23;15.68;;;6.13;;
63801;SDS011;49949;43.060;25.624;2023-08-30T13:31:49;11.88;;;5.00;;
63801;SDS011;49949;43.060;25.624;2023-08-30T13:34:14;9.07;;;4.88;;
63801;SDS011;49949;43.060;25.624;2023-08-30T13:36:40;18.42;;;5.57;;
63801;SDS011;49949;43.060;25.624;2023-08-30T13:39:06;129.10;;;10.38;;
63801;SDS011;49949;43.060;25.624;2023-08-30T13:41:31;366.05;;;25.65;;
63801;SDS011;49949;43.060;25.624;2023-08-30T13:43:57;188.50;;;13.80;;
63801;SDS011;49949;43.060;25.624;2023-08-30T13:46:23;145.75;;;12.40;;
63801;SDS011;49949;43.060;25.624;2023-08-30T13:48:49;212.23;;;15.05;;
63801;SDS011;49949;43.060;25.624;2023-08-30T13:51:20;30.17;;;7.93;;
63801;SDS011;49949;43.060;25.624;2023-08-30T13:53:52;25.45;;;7.88;;
63801;SDS011;49949;43.060;25.624;2023-08-30T13:56:19;36.83;;;9.35;;
63801;SDS011;49949;43.060;25.624;2023-08-30T13:58:45;9.77;;;4.22;;
63801;SDS011;49949;43.060;25.624;2023-08-30T14:01:11;11.60;;;6.15;;
63801;SDS011;49949;43.060;25.624;2023-08-30T14:03:37;9.52;;;6.20;;
63801;SDS011;49949;43.060;25.624;2023-08-30T14:06:03;9.25;;;5.57;;
63801;SDS011;49949;43.060;25.624;2023-08-30T14:08:29;16.92;;;8.38;;
63801;SDS011;49949;43.060;25.624;2023-08-30T14:10:55;14.73;;;7.72;;
63801;SDS011;49949;43.060;25.624;2023-08-30T14:13:21;14.18;;;9.05;;
63801;SDS011;49949;43.060;25.624;2023-08-30T14:15:47;16.20;;;9.30;;
63801;SDS011;49949;43.060;25.624;2023-08-30T14:18:14;11.77;;;7.03;;
63801;SDS011;49949;43.060;25.624;2023-08-30T14:20:41;23.33;;;9.63;;
63801;SDS011;49949;43.060;25.624;2023-08-30T14:23:07;15.50;;;9.13;;
63801;SDS011;49949;43.060;25.624;2023-08-30T14:25:33;13.15;;;9.68;;
63801;SDS011;49949;43.060;25.624;2023-08-30T14:27:59;15.68;;;9.23;;
63801;SDS011;49949;43.060;25.624;2023-08-30T14:30:26;21.02;;;10.95;;
63801;SDS011;49949;43.060;25.624;2023-08-30T14:32:52;22.30;;;10.15;;